Time;durP1;ratioP1;P1;durP2;ratioP2;P2;SDS_P1;SDS_P2;PMS_P1;PMS_P2;Temp;Humidity;BMP_temperature;BMP_pressure;BME280_temperature;BME280_humidity;BME280_pressure;Samples;Min_cycle;Max_cycle;Signal;HPM_P1;HPM_P2
2023/07/26 00:00:11;;;;;;;1999.90;999.90;;;13.70;99.90;;;;;;5033224;28;20124;-72
2023/07/26 00:02:36;;;;;;;1999.90;999.90;;;13.70;99.90;;;;;;5033196;28;20034;-71
2023/07/26 00:05:02;;;;;;;1999.90;999.90;;;13.70;99.90;;;;;;5033426;28;20487;-71
2023/07/26 00:07:27;;;;;;;1999.90;999.90;;;13.70;99.90;;;;;;5033426;28;20133;-71
2023/07/26 00:09:53;;;;;;;1999.90;999.90;;;13.70;99.90;;;;;;5032639;28;20042;-72
2023/07/26 00:12:18;;;;;;;1999.90;999.90;;;13.80;99.90;;;;;;5033171;28;20034;-71
2023/07/26 00:14:44;;;;;;;1999.90;999.90;;;13.80;99.90;;;;;;5033184;28;20042;-72
2023/07/26 00:17:10;;;;;;;1999.90;999.90;;;13.70;99.90;;;;;;5031283;28;20037;-72
2023/07/26 00:19:35;;;;;;;1999.90;999.90;;;13.70;99.90;;;;;;5033228;28;20056;-70
2023/07/26 00:22:01;;;;;;;1999.90;999.90;;;13.70;99.90;;;;;;5032371;28;20834;-72
2023/07/26 00:24:26;;;;;;;1999.90;999.90;;;13.70;99.90;;;;;;5032921;28;20038;-72
2023/07/26 00:26:52;;;;;;;1999.90;999.90;;;13.70;99.90;;;;;;5033176;28;20030;-72
2023/07/26 00:29:17;;;;;;;1999.90;999.90;;;13.80;99.90;;;;;;5032951;28;20818;-72
2023/07/26 00:31:43;;;;;;;1999.90;999.90;;;13.80;99.90;;;;;;5032737;28;20029;-72
2023/07/26 00:34:09;;;;;;;1999.90;999.90;;;13.90;99.90;;;;;;5033458;28;20046;-72
2023/07/26 00:36:34;;;;;;;1999.90;999.90;;;13.90;99.90;;;;;;5036281;28;20107;-71
2023/07/26 00:39:00;;;;;;;1999.90;999.90;;;13.90;99.90;;;;;;5034977;28;20121;-71
2023/07/26 00:41:26;;;;;;;1999.90;999.90;;;13.90;99.90;;;;;;5036076;28;20029;-71
2023/07/26 00:43:51;;;;;;;1999.90;999.90;;;13.90;99.90;;;;;;5036640;28;20470;-71
2023/07/26 00:46:17;;;;;;;1999.90;999.90;;;13.90;99.90;;;;;;5036304;28;20026;-72
2023/07/26 00:48:43;;;;;;;1999.90;999.90;;;13.90;99.90;;;;;;5035657;28;20037;-71
2023/07/26 00:51:09;;;;;;;1999.90;999.90;;;13.90;99.90;;;;;;5035552;28;20365;-71
2023/07/26 00:53:35;;;;;;;1999.90;999.90;;;13.90;99.90;;;;;;5036193;28;20038;-71
2023/07/26 00:56:00;;;;;;;1999.90;999.90;;;13.80;99.90;;;;;;5036019;28;20048;-71
2023/07/26 00:58:26;;;;;;;1999.90;999.90;;;13.80;99.90;;;;;;5036296;28;20427;-72
2023/07/26 01:00:53;;;;;;;1999.90;999.90;;;13.80;99.90;;;;;;5035802;28;20115;-70
2023/07/26 01:03:19;;;;;;;1999.90;999.90;;;13.80;99.90;;;;;;5035889;28;20037;-71
2023/07/26 01:06:15;;;;;;;1999.90;999.90;;;13.80;99.90;;;;;;5034738;28;20428;-70
2023/07/26 01:09:10;;;;;;;1999.90;999.90;;;13.70;99.90;;;;;;5018019;28;20045;-70
2023/07/26 01:11:43;;;;;;;1999.90;999.90;;;13.70;99.90;;;;;;5035602;28;20030;-71
2023/07/26 01:14:23;;;;;;;1999.90;999.90;;;13.70;99.90;;;;;;5034293;28;20038;-70
2023/07/26 01:16:49;;;;;;;1999.90;999.90;;;13.70;99.90;;;;;;5035712;28;20034;-70
2023/07/26 01:19:15;;;;;;;1999.90;999.90;;;13.70;99.90;;;;;;5035730;28;20507;-70
2023/07/26 01:21:40;;;;;;;1999.90;999.90;;;13.70;99.90;;;;;;5035454;28;20068;-72
2023/07/26 01:24:06;;;;;;;1999.90;999.90;;;13.70;99.90;;;;;;5034425;28;20038;-70
2023/07/26 01:26:32;;;;;;;1999.90;999.90;;;13.60;99.90;;;;;;5035691;28;20040;-70
2023/07/26 01:28:57;;;;;;;1999.90;999.90;;;13.60;99.90;;;;;;5017644;28;20408;-71
2023/07/26 01:31:24;;;;;;;1999.90;999.90;;;13.60;99.90;;;;;;5035358;28;20435;-70
2023/07/26 01:33:52;;;;;;;1999.90;999.90;;;13.60;99.90;;;;;;5035733;28;20041;-70
2023/07/26 01:36:21;;;;;;;1999.90;999.90;;;13.50;99.90;;;;;;5035706;28;20785;-70
2023/07/26 01:38:47;;;;;;;1999.90;999.90;;;13.50;99.90;;;;;;5035643;28;20184;-70
2023/07/26 01:41:14;;;;;;;1999.90;999.90;;;13.60;99.90;;;;;;5034967;28;20506;-70
2023/07/26 01:43:40;;;;;;;1999.90;999.90;;;13.50;99.90;;;;;;5035640;28;20049;-69
2023/07/26 01:46:05;;;;;;;1999.90;999.90;;;13.50;99.90;;;;;;5035157;28;20034;-70
2023/07/26 01:48:31;;;;;;;1999.90;999.90;;;13.40;99.90;;;;;;5035632;28;20487;-70
2023/07/26 01:50:57;;;;;;;1999.90;999.90;;;13.40;99.90;;;;;;5035056;28;20033;-70
2023/07/26 01:53:22;;;;;;;1999.90;999.90;;;13.40;99.90;;;;;;5035807;28;20037;-70
2023/07/26 01:55:48;;;;;;;1999.90;999.90;;;13.30;99.90;;;;;;5035496;28;20037;-70
2023/07/26 01:58:13;;;;;;;1999.90;999.90;;;13.30;99.90;;;;;;5035521;28;20037;-69
2023/07/26 02:00:39;;;;;;;1999.90;999.90;;;13.30;99.90;;;;;;5034750;28;20045;-70
2023/07/26 02:03:05;;;;;;;1999.90;999.90;;;13.30;99.90;;;;;;5035277;28;20034;-70
2023/07/26 02:05:30;;;;;;;1999.90;999.90;;;13.40;99.90;;;;;;5035310;28;20034;-71
2023/07/26 02:07:56;;;;;;;1999.90;999.90;;;13.30;99.90;;;;;;5035375;28;20542;-70
2023/07/26 02:10:22;;;;;;;1999.90;999.90;;;13.30;99.90;;;;;;5035123;28;20033;-70
2023/07/26 02:12:48;;;;;;;1999.90;999.90;;;13.30;99.90;;;;;;5016952;28;20061;-70
2023/07/26 02:15:13;;;;;;;1999.90;999.90;;;13.20;99.90;;;;;;5035208;28;20512;-71
2023/07/26 02:17:39;;;;;;;1999.90;999.90;;;13.20;99.90;;;;;;5016671;28;20329;-70
2023/07/26 02:20:05;;;;;;;1999.90;999.90;;;13.10;99.90;;;;;;5016845;28;20060;-70
2023/07/26 02:22:30;;;;;;;1999.90;999.90;;;13.10;99.90;;;;;;5034527;28;20049;-70
2023/07/26 02:24:56;;;;;;;1999.90;999.90;;;13.10;99.90;;;;;;5035105;28;20526;-70
2023/07/26 02:27:21;;;;;;;1999.90;999.90;;;13.00;99.90;;;;;;5035086;28;20032;-70
2023/07/26 02:29:47;;;;;;;1999.90;999.90;;;13.00;99.90;;;;;;5034955;28;20048;-71
2023/07/26 02:32:13;;;;;;;1999.90;999.90;;;13.00;99.90;;;;;;5034518;28;20090;-71
2023/07/26 02:34:38;;;;;;;1999.90;999.90;;;13.00;99.90;;;;;;5034924;28;20093;-69
2023/07/26 02:37:04;;;;;;;1999.90;999.90;;;13.00;99.90;;;;;;5034878;28;20034;-69
2023/07/26 02:39:29;;;;;;;1999.90;999.90;;;12.90;99.90;;;;;;5034738;28;20037;-70
2023/07/26 02:41:55;;;;;;;1999.90;999.90;;;12.90;99.90;;;;;;5016402;28;20038;-70
2023/07/26 02:44:20;;;;;;;1999.90;999.90;;;12.80;99.90;;;;;;5034780;28;20041;-70
2023/07/26 02:46:46;;;;;;;1999.90;999.90;;;12.80;99.90;;;;;;5034783;28;20061;-70
2023/07/26 02:49:12;;;;;;;1999.90;999.90;;;12.70;99.90;;;;;;5034351;28;20038;-70
2023/07/26 02:51:37;;;;;;;1999.90;999.90;;;12.60;99.90;;;;;;5016235;28;20038;-69
2023/07/26 02:54:03;;;;;;;1999.90;999.90;;;12.50;99.90;;;;;;5016600;28;20061;-70
2023/07/26 02:56:28;;;;;;;1999.90;999.90;;;12.50;99.90;;;;;;5034111;28;20373;-69
2023/07/26 02:58:54;;;;;;;1999.90;999.90;;;12.50;99.90;;;;;;5034185;28;20112;-70
2023/07/26 03:01:19;;;;;;;1999.90;999.90;;;12.50;99.90;;;;;;5015465;28;20107;-70
2023/07/26 03:03:45;;;;;;;1999.90;999.90;;;12.40;99.90;;;;;;5034157;28;20034;-70
2023/07/26 03:06:12;;;;;;;1999.90;999.90;;;12.40;99.90;;;;;;5034499;28;20109;-70
2023/07/26 03:08:37;;;;;;;1999.90;999.90;;;12.40;99.90;;;;;;5034298;28;20400;-72
2023/07/26 03:11:03;;;;;;;1999.90;999.90;;;12.40;99.90;;;;;;5033965;28;20045;-69
2023/07/26 03:13:28;;;;;;;1999.90;999.90;;;12.40;99.90;;;;;;5034111;28;20069;-70
2023/07/26 03:15:54;;;;;;;1999.90;999.90;;;12.40;99.90;;;;;;5034403;28;20117;-69
2023/07/26 03:18:19;;;;;;;1999.90;999.90;;;12.40;99.90;;;;;;5034118;28;20128;-72
2023/07/26 03:20:46;;;;;;;1999.90;999.90;;;12.50;99.90;;;;;;5034083;28;20097;-70
2023/07/26 03:23:12;;;;;;;1999.90;999.90;;;12.50;99.90;;;;;;5033923;28;20523;-69
2023/07/26 03:25:38;;;;;;;1999.90;999.90;;;12.60;99.90;;;;;;5034219;28;20488;-70
2023/07/26 03:28:04;;;;;;;1999.90;999.90;;;12.60;99.90;;;;;;5034193;28;20030;-70
2023/07/26 03:30:29;;;;;;;1999.90;999.90;;;12.60;99.90;;;;;;5033751;28;20042;-71
2023/07/26 03:32:55;;;;;;;1999.90;999.90;;;12.60;99.90;;;;;;5033877;28;20093;-71
2023/07/26 03:35:20;;;;;;;1999.90;999.90;;;12.60;99.90;;;;;;5034126;28;20546;-70
2023/07/26 03:37:46;;;;;;;1999.90;999.90;;;12.60;99.90;;;;;;5033725;28;20404;-70
2023/07/26 03:40:12;;;;;;;1999.90;999.90;;;12.50;99.90;;;;;;5033830;28;20100;-69
2023/07/26 03:42:38;;;;;;;1999.90;999.90;;;12.50;99.90;;;;;;5033483;28;20061;-69
2023/07/26 03:45:03;;;;;;;1999.90;999.90;;;12.50;99.90;;;;;;5015936;28;20066;-70
2023/07/26 03:47:29;;;;;;;1999.90;999.90;;;12.50;99.90;;;;;;5015701;28;20030;-70
2023/07/26 03:49:54;;;;;;;1999.90;999.90;;;12.50;99.90;;;;;;5033520;28;20046;-69
2023/07/26 03:52:20;;;;;;;1999.90;999.90;;;12.60;99.90;;;;;;5033522;28;20438;-69
2023/07/26 03:54:46;;;;;;;1999.90;999.90;;;12.60;99.90;;;;;;5033859;28;20088;-70
2023/07/26 03:57:11;;;;;;;1999.90;999.90;;;12.70;99.90;;;;;;5033553;28;20092;-70
2023/07/26 03:59:37;;;;;;;1999.90;999.90;;;12.70;99.90;;;;;;5033655;28;20068;-69
2023/07/26 04:02:03;;;;;;;1999.90;999.90;;;12.70;99.90;;;;;;5032942;28;20113;-69
2023/07/26 04:04:28;;;;;;;1999.90;999.90;;;12.60;99.90;;;;;;5015550;28;20034;-70
2023/07/26 04:06:54;;;;;;;1999.90;999.90;;;12.60;99.90;;;;;;5033749;28;20029;-70
2023/07/26 04:09:19;;;;;;;1999.90;999.90;;;12.60;99.90;;;;;;5035784;28;20130;-70
2023/07/26 04:11:45;;;;;;;1999.90;999.90;;;12.60;99.90;;;;;;5036545;28;20033;-71
2023/07/26 04:14:10;;;;;;;1999.90;999.90;;;12.70;99.90;;;;;;5036986;28;20038;-70
2023/07/26 04:16:36;;;;;;;1999.90;999.90;;;12.70;99.90;;;;;;5037212;28;20036;-69
2023/07/26 04:19:01;;;;;;;1999.90;999.90;;;12.70;99.90;;;;;;5037004;28;20077;-70
2023/07/26 04:21:27;;;;;;;1999.90;999.90;;;12.80;99.90;;;;;;5036311;28;20034;-69
2023/07/26 04:23:52;;;;;;;1999.90;999.90;;;12.90;99.90;;;;;;5037001;28;20061;-70
2023/07/26 04:26:19;;;;;;;1999.90;999.90;;;13.00;99.90;;;;;;5036963;28;20402;-70
2023/07/26 04:28:44;;;;;;;1999.90;999.90;;;13.00;99.90;;;;;;5036840;28;20044;-70
2023/07/26 04:31:10;;;;;;;1999.90;999.90;;;12.90;99.90;;;;;;5018472;28;20092;-70
2023/07/26 04:33:35;;;;;;;1999.90;999.90;;;12.90;99.90;;;;;;5036854;28;20061;-70
2023/07/26 04:36:01;;;;;;;1999.90;999.90;;;12.90;99.90;;;;;;5036715;28;20037;-71
2023/07/26 04:38:27;;;;;;;1999.90;999.90;;;12.80;99.90;;;;;;5036359;28;20502;-70
2023/07/26 04:40:53;;;;;;;1999.90;999.90;;;12.80;99.90;;;;;;5036372;28;20112;-70
2023/07/26 04:43:21;;;;;;;1999.90;999.90;;;12.80;99.90;;;;;;5036621;28;20105;-70
2023/07/26 04:45:51;;;;;;;1999.90;999.90;;;12.90;99.90;;;;;;5036484;28;20038;-70
2023/07/26 04:48:18;;;;;;;1999.90;999.90;;;12.90;99.90;;;;;;5036280;28;20411;-69
2023/07/26 04:50:47;;;;;;;1999.90;999.90;;;13.00;99.90;;;;;;5036197;28;20125;-70
2023/07/26 04:53:13;;;;;;;1999.90;999.90;;;13.10;99.90;;;;;;5036145;28;20030;-70
2023/07/26 04:55:49;;;;;;;1999.90;999.90;;;13.30;99.90;;;;;;5036452;28;20038;-70
2023/07/26 04:58:15;;;;;;;1999.90;999.90;;;13.40;99.90;;;;;;5018418;28;20034;-70
2023/07/26 05:00:41;;;;;;;1999.90;999.90;;;13.40;99.90;;;;;;5035979;28;20430;-69
2023/07/26 05:03:07;;;;;;;1999.90;999.90;;;13.50;99.90;;;;;;5036325;28;20030;-70
2023/07/26 05:05:34;;;;;;;1999.90;999.90;;;13.60;99.90;;;;;;5036216;28;20052;-69
2023/07/26 05:08:00;;;;;;;1999.90;999.90;;;13.70;99.90;;;;;;5036334;28;20037;-68
2023/07/26 05:10:25;;;;;;;1999.90;999.90;;;13.70;99.90;;;;;;5036234;28;20484;-70
2023/07/26 05:12:57;;;;;;;1999.90;999.90;;;13.70;99.90;;;;;;5035641;28;20034;-69
2023/07/26 05:15:23;;;;;;;1999.90;999.90;;;13.90;99.90;;;;;;5035373;28;20108;-69
2023/07/26 05:17:50;;;;;;;1999.90;999.90;;;13.90;99.90;;;;;;5034827;28;20042;-70
2023/07/26 05:20:16;;;;;;;1999.90;999.90;;;13.90;99.90;;;;;;5017267;28;20147;-69
2023/07/26 05:22:41;;;;;;;1999.90;999.90;;;13.90;99.90;;;;;;5035521;28;20121;-72
2023/07/26 05:25:07;;;;;;;1999.90;999.90;;;14.00;99.90;;;;;;5036265;28;20495;-69
2023/07/26 05:27:32;;;;;;;1999.90;999.90;;;13.90;99.90;;;;;;5035126;28;20034;-69
2023/07/26 05:30:42;;;;;;;1999.90;999.90;;;13.90;99.90;;;;;;5036233;28;20518;-71
2023/07/26 05:33:08;;;;;;;1999.90;999.90;;;13.90;99.90;;;;;;5036721;28;20040;-72
2023/07/26 05:35:34;;;;;;;1999.90;999.90;;;14.00;99.90;;;;;;5036488;28;20049;-73
2023/07/26 05:38:00;;;;;;;1999.90;999.90;;;14.00;99.90;;;;;;5036465;28;20117;-72
2023/07/26 05:40:26;;;;;;;1999.90;999.90;;;14.20;99.90;;;;;;5036385;28;20564;-72
2023/07/26 05:42:52;;;;;;;1999.90;999.90;;;14.30;99.90;;;;;;5018653;28;20109;-72
2023/07/26 05:45:17;;;;;;;1999.90;999.90;;;14.40;99.90;;;;;;5036528;28;20448;-72
2023/07/26 05:47:43;;;;;;;1999.90;999.90;;;14.50;99.90;;;;;;5035862;28;20038;-72
2023/07/26 05:50:12;;;;;;;1999.90;999.90;;;14.60;99.90;;;;;;5035813;28;20034;-72
2023/07/26 05:52:38;;;;;;;1999.90;999.90;;;14.60;99.90;;;;;;5035633;28;20030;-71
2023/07/26 05:55:04;;;;;;;1999.90;999.90;;;14.60;99.90;;;;;;5036173;28;20597;-73
2023/07/26 05:57:30;;;;;;;1999.90;999.90;;;14.60;99.90;;;;;;5037118;28;20408;-73
2023/07/26 05:59:56;;;;;;;1999.90;999.90;;;14.80;99.90;;;;;;5017919;28;20037;-71
2023/07/26 06:02:21;;;;;;;1999.90;999.90;;;15.00;99.90;;;;;;5035492;28;20137;-72
2023/07/26 06:04:47;;;;;;;1999.90;999.90;;;15.10;99.90;;;;;;5036634;28;20030;-73
2023/07/26 06:07:14;;;;;;;1999.90;999.90;;;15.30;99.90;;;;;;5037343;28;21000;-74
2023/07/26 06:09:39;;;;;;;1999.90;999.90;;;15.30;99.90;;;;;;5034540;28;20038;-73
2023/07/26 06:12:05;;;;;;;1999.90;999.90;;;15.50;99.90;;;;;;5035100;28;20034;-73
2023/07/26 06:14:31;;;;;;;1999.90;999.90;;;15.60;99.90;;;;;;5034193;28;20181;-73
2023/07/26 06:16:56;;;;;;;1999.90;999.90;;;15.70;99.90;;;;;;5035609;28;20034;-74
2023/07/26 06:19:22;;;;;;;1999.90;999.90;;;15.60;99.90;;;;;;5035558;28;20565;-74
2023/07/26 06:21:48;;;;;;;1999.90;999.90;;;15.60;99.90;;;;;;5017041;28;20173;-73
2023/07/26 06:24:14;;;;;;;1999.90;999.90;;;15.70;99.90;;;;;;5035405;28;20117;-73
2023/07/26 06:26:39;;;;;;;1999.90;999.90;;;15.70;99.90;;;;;;5035505;28;20040;-73
2023/07/26 06:29:05;;;;;;;1999.90;999.90;;;15.70;99.90;;;;;;5017338;28;20124;-71
2023/07/26 06:31:30;;;;;;;1999.90;999.90;;;15.90;99.90;;;;;;5035089;28;20038;-73
2023/07/26 06:33:56;;;;;;;1999.90;999.90;;;15.70;99.90;;;;;;5017294;28;20041;-72
2023/07/26 06:36:21;;;;;;;1999.90;999.90;;;15.60;99.90;;;;;;5034984;28;20030;-72
2023/07/26 06:38:47;;;;;;;1999.90;999.90;;;15.50;99.90;;;;;;5033738;28;20037;-71
2023/07/26 06:41:12;;;;;;;1999.90;999.90;;;15.40;99.90;;;;;;5034784;28;20036;-72
2023/07/26 06:43:38;;;;;;;1999.90;999.90;;;15.40;99.90;;;;;;5035179;28;20044;-72
2023/07/26 06:46:03;;;;;;;1999.90;999.90;;;15.50;99.90;;;;;;5034996;28;20425;-72
2023/07/26 06:48:29;;;;;;;1999.90;999.90;;;15.50;99.90;;;;;;5035110;28;20025;-72
2023/07/26 06:50:54;;;;;;;1999.90;999.90;;;15.70;99.90;;;;;;5034480;28;20045;-72
2023/07/26 06:53:20;;;;;;;1999.90;999.90;;;15.60;99.90;;;;;;5035117;28;20041;-72
2023/07/26 06:55:45;;;;;;;1999.90;999.90;;;15.70;99.90;;;;;;5033439;28;20109;-72
2023/07/26 06:58:11;;;;;;;1999.90;999.90;;;15.90;99.90;;;;;;5034967;28;20030;-72
2023/07/26 07:00:39;;;;;;;1999.90;999.90;;;15.90;99.90;;;;;;5061802;22;20073;-71
2023/07/26 07:03:04;;;;;;;1999.90;999.90;;;15.80;99.90;;;;;;5035835;28;20128;-71
2023/07/26 07:05:35;;;;;;;1999.90;999.90;;;15.80;99.90;;;;;;5054699;28;20555;-71
2023/07/26 07:08:01;;;;;;;1999.90;999.90;;;15.70;99.90;;;;;;5036311;28;20568;-71
2023/07/26 07:10:26;;;;;;;1999.90;999.90;;;15.70;99.90;;;;;;5036008;28;20037;-69
2023/07/26 07:12:52;;;;;;;1999.90;999.90;;;15.70;99.90;;;;;;5054024;28;20037;-71
2023/07/26 07:15:17;;;;;;;1999.90;999.90;;;15.70;99.90;;;;;;5052995;28;20037;-70
2023/07/26 07:17:43;;;;;;;1999.90;999.90;;;15.70;99.90;;;;;;5053839;28;20056;-70
2023/07/26 07:20:09;;;;;;;1999.90;999.90;;;15.60;99.90;;;;;;5052483;28;20034;-71
2023/07/26 07:22:35;;;;;;;1999.90;999.90;;;15.50;99.90;;;;;;5054038;28;20021;-71
2023/07/26 07:25:01;;;;;;;1999.90;999.90;;;15.30;99.90;;;;;;5054057;28;20422;-70
2023/07/26 07:27:27;;;;;;;1999.90;999.90;;;15.20;99.90;;;;;;5054124;28;20465;-72
2023/07/26 07:29:52;;;;;;;1999.90;999.90;;;15.00;99.90;;;;;;5053752;28;20087;-71
2023/07/26 07:32:18;;;;;;;1999.90;999.90;;;14.90;99.90;;;;;;5053955;28;20030;-72
2023/07/26 07:34:45;;;;;;;1999.90;999.90;;;14.60;99.90;;;;;;5054591;28;20045;-72
2023/07/26 07:37:11;;;;;;;1999.90;999.90;;;14.50;99.90;;;;;;5054252;28;20036;-80
2023/07/26 07:39:37;;;;;;;1999.90;999.90;;;14.30;99.90;;;;;;5054983;28;20033;-80
2023/07/26 07:42:03;;;;;;;1999.90;999.90;;;14.20;99.90;;;;;;5053362;28;20083;-72
2023/07/26 07:44:29;;;;;;;1999.90;999.90;;;14.10;99.90;;;;;;5055420;28;20483;-73
2023/07/26 07:46:54;;;;;;;1999.90;999.90;;;14.00;99.90;;;;;;5057213;28;20437;-72
2023/07/26 07:49:20;;;;;;;1999.90;999.90;;;14.00;99.90;;;;;;5054362;28;20042;-72
2023/07/26 07:51:46;;;;;;;1999.90;999.90;;;14.10;99.90;;;;;;5035854;28;20045;-73
2023/07/26 07:54:11;;;;;;;1999.90;999.90;;;14.20;99.90;;;;;;5037860;28;20061;-73
2023/07/26 07:56:38;;;;;;;1999.90;999.90;;;14.10;99.90;;;;;;5037261;28;20033;-69
2023/07/26 07:59:03;;;;;;;1999.90;999.90;;;14.10;99.90;;;;;;5037332;28;20115;-79
2023/07/26 08:01:30;;;;;;;1999.90;999.90;;;14.00;99.90;;;;;;5036629;28;20117;-72
2023/07/26 08:03:56;;;;;;;1999.90;999.90;;;13.80;99.90;;;;;;5037319;28;20037;-69
2023/07/26 08:06:21;;;;;;;1999.90;999.90;;;13.90;99.90;;;;;;5035954;28;20030;-69
2023/07/26 08:08:47;;;;;;;1999.90;999.90;;;13.80;99.90;;;;;;5037061;28;20080;-69
2023/07/26 08:11:12;;;;;;;1999.90;999.90;;;13.90;99.90;;;;;;5036474;28;20542;-69
2023/07/26 08:13:38;;;;;;;1999.90;999.90;;;14.00;99.90;;;;;;5037336;28;20034;-69
2023/07/26 08:16:03;;;;;;;1999.90;999.90;;;14.00;99.90;;;;;;5037218;28;20395;-69
2023/07/26 08:18:29;;;;;;;1999.90;999.90;;;14.10;99.90;;;;;;5037281;28;20037;-69
2023/07/26 08:20:54;;;;;;;1999.90;999.90;;;14.30;99.90;;;;;;5041737;28;20041;-69
2023/07/26 08:23:20;;;;;;;1999.90;999.90;;;14.40;99.90;;;;;;5056975;28;20576;-69
2023/07/26 08:25:46;;;;;;;1999.90;999.90;;;14.40;99.90;;;;;;5057456;28;20125;-79
2023/07/26 08:28:11;;;;;;;1999.90;999.90;;;14.40;99.90;;;;;;5057317;28;20041;-71
2023/07/26 08:30:37;;;;;;;1999.90;999.90;;;14.30;99.90;;;;;;5054996;28;20064;-70
2023/07/26 08:33:03;;;;;;;1999.90;999.90;;;14.20;99.90;;;;;;5056558;28;20040;-74
2023/07/26 08:35:29;;;;;;;1999.90;999.90;;;14.20;99.90;;;;;;5056894;28;20399;-79
2023/07/26 08:37:54;;;;;;;1999.90;999.90;;;14.40;99.90;;;;;;5056409;28;20034;-72
2023/07/26 08:40:20;;;;;;;1999.90;999.90;;;14.50;99.90;;;;;;5056391;28;20083;-71
2023/07/26 08:42:46;;;;;;;1999.90;999.90;;;14.60;99.90;;;;;;5055285;28;20042;-72
2023/07/26 08:45:12;;;;;;;1999.90;999.90;;;14.80;99.90;;;;;;5056616;28;20033;-72
2023/07/26 08:47:38;;;;;;;1999.90;999.90;;;15.10;99.90;;;;;;5056602;28;20029;-71
2023/07/26 08:50:04;;;;;;;1999.90;999.90;;;15.40;99.90;;;;;;5056468;28;20033;-72
2023/07/26 08:52:31;;;;;;;1999.90;999.90;;;15.70;99.90;;;;;;5056070;28;20037;-71
2023/07/26 08:54:57;;;;;;;1999.90;999.90;;;15.90;99.90;;;;;;5047618;28;20053;-70
2023/07/26 08:57:26;;;;;;;1999.90;999.90;;;16.10;99.90;;;;;;5036803;28;20040;-72
2023/07/26 08:59:52;;;;;;;1999.90;999.90;;;16.50;99.90;;;;;;5036403;28;20034;-72
2023/07/26 09:02:19;;;;;;;1999.90;999.90;;;16.60;99.90;;;;;;5043656;28;20088;-71
2023/07/26 09:04:46;;;;;;;1999.90;999.90;;;17.00;99.90;;;;;;5043002;28;20041;-70
2023/07/26 09:07:12;;;;;;;1999.90;999.90;;;17.40;99.90;;;;;;5037594;28;20033;-71
2023/07/26 09:09:38;;;;;;;1999.90;999.90;;;17.60;99.90;;;;;;5041669;28;20049;-71
2023/07/26 09:12:04;;;;;;;1999.90;999.90;;;17.50;99.90;;;;;;5049535;28;20494;-70
2023/07/26 09:14:31;;;;;;;1999.90;999.90;;;17.50;99.90;;;;;;5040181;28;20041;-71
2023/07/26 09:16:58;;;;;;;1999.90;999.90;;;17.80;99.90;;;;;;5041588;28;20061;-71
2023/07/26 09:19:32;;;;;;;1999.90;999.90;;;17.80;99.90;;;;;;5051614;28;20049;-71
2023/07/26 09:22:03;;;;;;;1999.90;999.90;;;17.90;99.90;;;;;;5053510;28;20096;-70
2023/07/26 09:24:34;;;;;;;1999.90;999.90;;;17.60;99.90;;;;;;5052934;28;20079;-71
2023/07/26 09:27:11;;;;;;;1999.90;999.90;;;17.40;99.90;;;;;;5036262;28;20045;-70
2023/07/26 09:29:40;;;;;;;1999.90;999.90;;;17.20;99.90;;;;;;5039841;28;20100;-71
2023/07/26 09:32:07;;;;;;;1999.90;999.90;;;17.20;99.90;;;;;;5039309;28;20038;-71
2023/07/26 09:34:33;;;;;;;1999.90;999.90;;;17.40;99.90;;;;;;5045276;28;20129;-70
2023/07/26 09:36:59;;;;;;;1999.90;999.90;;;17.70;99.90;;;;;;5042819;28;20121;-70
2023/07/26 09:39:27;;;;;;;1999.90;999.90;;;18.30;99.90;;;;;;5041762;28;20541;-69
2023/07/26 09:42:06;;;;;;;1999.90;999.90;;;18.60;99.90;;;;;;5035067;28;20037;-68
